createdAt,value
2019-04-07T00:03:49.477Z,14.93
2019-04-07T00:07:54.305Z,14.38
2019-04-07T00:12:02.590Z,13.70
2019-04-07T00:16:14.560Z,11.97
2019-04-07T00:24:21.155Z,11.88
2019-04-07T00:28:24.771Z,10.23
2019-04-07T00:32:30.167Z,10.13
2019-04-07T00:36:34.172Z,9.45
2019-04-07T00:40:38.232Z,9.58
2019-04-07T00:44:41.812Z,8.55
2019-04-07T00:48:45.520Z,10.65
2019-04-07T00:52:49.249Z,8.53
2019-04-07T00:56:53.052Z,8.42
2019-04-07T01:00:56.587Z,8.90
2019-04-07T01:05:00.243Z,8.53
2019-04-07T01:09:05.330Z,8.68
2019-04-07T01:13:09.268Z,8.93
2019-04-07T01:17:12.804Z,9.68
2019-04-07T01:21:17.047Z,9.93
2019-04-07T01:25:21.488Z,10.60
2019-04-07T01:29:25.527Z,7.80
2019-04-07T01:33:29.276Z,9.58
2019-04-07T01:37:32.878Z,9.58
2019-04-07T01:41:44.147Z,10.70
2019-04-07T01:46:02.185Z,9.43
2019-04-07T01:50:08.948Z,7.08
2019-04-07T01:54:14.143Z,7.97
2019-04-07T01:58:20.048Z,6.62
2019-04-07T02:02:25.590Z,7.85
2019-04-07T02:06:46.370Z,8.80
2019-04-07T02:10:55.029Z,6.90
2019-04-07T02:15:18.939Z,7.37
2019-04-07T02:19:24.192Z,8.00
2019-04-07T02:23:45.912Z,7.42
2019-04-07T02:27:54.557Z,6.97
2019-04-07T02:32:06.457Z,7.97
2019-04-07T02:36:21.979Z,6.70
2019-04-07T02:40:34.420Z,6.57
2019-04-07T02:44:58.055Z,7.40
2019-04-07T02:49:04.167Z,7.20
2019-04-07T02:53:21.778Z,7.90
2019-04-07T02:57:32.717Z,7.58
2019-04-07T03:01:55.209Z,6.73
2019-04-07T03:06:01.529Z,5.72
2019-04-07T03:10:18.610Z,6.10
2019-04-07T03:14:33.390Z,7.35
2019-04-07T03:18:42.478Z,5.85
2019-04-07T03:22:56.609Z,6.30
2019-04-07T03:27:11.487Z,6.97
2019-04-07T03:31:33.121Z,7.28
2019-04-07T03:35:43.727Z,6.78
2019-04-07T03:39:47.943Z,6.72
2019-04-07T03:43:53.186Z,8.08
2019-04-07T03:48:02.182Z,7.55
2019-04-07T03:52:07.469Z,6.85
2019-04-07T03:56:13.481Z,7.03
2019-04-07T04:00:50.852Z,6.33
2019-04-07T04:04:56.102Z,5.33
2019-04-07T04:09:14.028Z,6.47
2019-04-07T04:13:35.739Z,6.47
2019-04-07T04:17:39.520Z,6.25
2019-04-07T04:21:43.597Z,6.67
2019-04-07T04:25:48.920Z,5.90
2019-04-07T04:29:53.434Z,6.70
2019-04-07T04:33:58.004Z,6.62
2019-04-07T04:38:02.031Z,6.20
2019-04-07T04:42:06.018Z,6.10
2019-04-07T04:46:11.366Z,5.95
2019-04-07T04:50:15.150Z,6.03
2019-04-07T04:54:19.335Z,5.00
2019-04-07T04:58:23.105Z,5.37
2019-04-07T05:02:27.629Z,4.33
2019-04-07T05:06:31.299Z,4.45
2019-04-07T05:10:34.988Z,7.40
2019-04-07T05:14:38.833Z,7.08
2019-04-07T05:18:42.746Z,7.30
2019-04-07T05:22:58.639Z,5.30
2019-04-07T05:27:03.110Z,5.75
2019-04-07T05:31:07.352Z,7.20
2019-04-07T05:35:11.126Z,6.45
2019-04-07T05:39:15.293Z,7.03
2019-04-07T05:43:19.299Z,7.42
2019-04-07T05:47:23.001Z,7.90
2019-04-07T05:51:29.862Z,7.37
2019-04-07T05:55:32.111Z,7.33
2019-04-07T05:59:35.687Z,6.80
2019-04-07T06:03:42.839Z,9.10
2019-04-07T06:07:45.819Z,8.83
2019-04-07T06:11:49.838Z,9.15
2019-04-07T06:15:54.049Z,10.38
2019-04-07T06:19:58.970Z,11.15
2019-04-07T06:24:02.698Z,11.65
2019-04-07T06:28:07.070Z,10.30
2019-04-07T06:32:11.222Z,10.85
2019-04-07T06:36:17.652Z,11.40
2019-04-07T06:40:21.956Z,13.43
2019-04-07T06:44:25.891Z,12.57
2019-04-07T06:48:30.608Z,11.33
2019-04-07T06:52:40.614Z,11.83
2019-04-07T06:56:43.602Z,12.80
2019-04-07T07:01:06.969Z,11.10
2019-04-07T07:05:13.608Z,10.97
2019-04-07T07:09:38.965Z,10.98
2019-04-07T07:14:02.117Z,10.98
2019-04-07T07:18:13.199Z,11.22
2019-04-07T07:22:18.682Z,10.23
2019-04-07T07:26:22.306Z,10.70
2019-04-07T07:30:26.066Z,11.03
2019-04-07T07:34:30.425Z,9.03
2019-04-07T07:38:34.582Z,10.88
2019-04-07T07:42:38.296Z,11.15
2019-04-07T07:46:42.178Z,11.18
2019-04-07T07:50:45.869Z,10.13
2019-04-07T07:54:49.619Z,11.10
2019-04-07T07:58:53.922Z,11.10
2019-04-07T08:02:58.242Z,10.58
2019-04-07T08:07:02.625Z,11.60
2019-04-07T08:11:06.762Z,11.35
2019-04-07T08:15:10.691Z,9.93
2019-04-07T08:19:14.409Z,10.58
2019-04-07T08:23:18.715Z,11.00
2019-04-07T08:27:22.644Z,10.45
2019-04-07T08:31:26.454Z,9.68
2019-04-07T08:35:30.843Z,11.12
2019-04-07T08:39:36.267Z,9.53
2019-04-07T08:43:40.910Z,9.03
2019-04-07T08:47:47.373Z,9.75
2019-04-07T08:51:50.596Z,8.25
2019-04-07T08:55:55.200Z,9.73
2019-04-07T08:59:58.979Z,8.50
2019-04-07T09:04:02.694Z,8.95
2019-04-07T09:08:07.362Z,9.83
2019-04-07T09:12:11.419Z,10.15
2019-04-07T09:16:20.008Z,8.75
2019-04-07T09:20:34.664Z,9.25
2019-04-07T09:24:42.927Z,9.53
2019-04-07T09:28:53.394Z,9.45
2019-04-07T09:32:58.825Z,7.50
2019-04-07T09:37:11.839Z,8.07
2019-04-07T09:41:23.514Z,8.75
2019-04-07T09:45:33.394Z,7.85
2019-04-07T09:49:48.120Z,6.53
2019-04-07T09:53:57.548Z,6.78
2019-04-07T09:58:10.926Z,7.33
2019-04-07T10:02:18.654Z,6.95
2019-04-07T10:06:39.047Z,6.78
2019-04-07T10:10:49.456Z,6.85
2019-04-07T10:15:03.696Z,6.40
2019-04-07T10:19:15.348Z,7.45
2019-04-07T10:23:37.514Z,5.92
2019-04-07T10:27:43.041Z,7.45
2019-04-07T10:31:49.328Z,6.83
2019-04-07T10:36:11.272Z,7.58
2019-04-07T10:40:21.814Z,6.43
2019-04-07T10:44:25.979Z,6.15
2019-04-07T10:48:40.152Z,6.65
2019-04-07T10:53:01.911Z,6.58
2019-04-07T10:57:24.694Z,6.37
2019-04-07T11:01:29.947Z,5.58
2019-04-07T11:05:35.529Z,6.45
2019-04-07T11:09:57.868Z,6.83
2019-04-07T11:14:03.320Z,6.12
2019-04-07T11:18:19.175Z,6.00
2019-04-07T11:22:25.390Z,5.25
2019-04-07T11:26:31.009Z,6.20
2019-04-07T11:30:52.094Z,6.15
2019-04-07T11:35:07.112Z,5.27
2019-04-07T11:39:33.514Z,5.10
2019-04-07T11:43:54.737Z,5.40
2019-04-07T11:48:02.452Z,4.72
2019-04-07T11:52:11.243Z,5.50
2019-04-07T11:56:16.946Z,5.45
2019-04-07T12:00:25.271Z,5.05
2019-04-07T12:04:36.459Z,4.85
2019-04-07T12:08:51.126Z,5.10
2019-04-07T12:12:57.013Z,5.97
2019-04-07T12:17:08.712Z,5.33
2019-04-07T12:21:20.741Z,6.33
2019-04-07T12:25:34.883Z,5.40
2019-04-07T12:29:42.928Z,4.85
2019-04-07T12:34:04.958Z,5.50
2019-04-07T12:38:16.552Z,5.85
2019-04-07T12:42:24.459Z,5.08
2019-04-07T12:46:30.052Z,5.28
2019-04-07T12:50:35.624Z,4.37
2019-04-07T12:54:47.083Z,5.25
2019-04-07T12:59:01.467Z,4.87
2019-04-07T13:03:23.181Z,4.50
2019-04-07T13:07:38.629Z,5.78
2019-04-07T13:11:47.975Z,5.30
2019-04-07T13:15:52.127Z,4.72
2019-04-07T13:20:00.884Z,4.92
2019-04-07T13:24:12.679Z,5.12
2019-04-07T13:28:16.476Z,5.62
2019-04-07T13:32:43.101Z,4.85
2019-04-07T13:36:45.202Z,5.42
2019-04-07T13:40:55.090Z,4.45
2019-04-07T13:45:03.492Z,5.27
2019-04-07T13:49:14.968Z,4.90
2019-04-07T13:53:36.783Z,5.05
2019-04-07T13:57:54.912Z,4.70
2019-04-07T14:02:00.893Z,4.67
2019-04-07T14:06:06.919Z,5.28
2019-04-07T14:10:15.629Z,3.98
2019-04-07T14:14:23.453Z,5.12
2019-04-07T14:18:32.083Z,4.95
2019-04-07T14:22:39.955Z,4.35
2019-04-07T14:26:49.017Z,4.30
2019-04-07T14:31:10.830Z,5.40
2019-04-07T14:35:16.195Z,5.15
2019-04-07T14:39:28.179Z,5.03
2019-04-07T14:43:39.600Z,5.17
2019-04-07T14:47:46.298Z,5.12
2019-04-07T14:52:01.352Z,4.70
2019-04-07T14:56:07.954Z,4.53
2019-04-07T15:00:20.426Z,4.85
2019-04-07T15:04:26.680Z,4.78
2019-04-07T15:08:32.893Z,4.95
2019-04-07T15:12:41.404Z,5.03
2019-04-07T15:16:45.107Z,5.75
2019-04-07T15:20:48.798Z,5.40
2019-04-07T15:24:52.437Z,5.12
2019-04-07T15:28:58.194Z,5.62
2019-04-07T15:33:02.762Z,4.47
2019-04-07T15:37:07.845Z,4.83
2019-04-07T15:41:13.947Z,4.93
2019-04-07T15:45:16.859Z,5.10
2019-04-07T15:49:20.534Z,4.83
2019-04-07T15:53:24.532Z,5.10
2019-04-07T15:57:29.036Z,4.87
2019-04-07T16:01:33.733Z,5.85
2019-04-07T16:05:42.248Z,4.00
2019-04-07T16:09:50.881Z,4.65
2019-04-07T16:13:48.197Z,4.55
2019-04-07T16:17:52.298Z,4.83
2019-04-07T16:21:56.040Z,4.80
2019-04-07T16:26:01.959Z,4.67
2019-04-07T16:30:08.594Z,5.15
2019-04-07T16:34:13.158Z,5.58
2019-04-07T16:38:17.467Z,5.08
2019-04-07T16:42:21.174Z,5.12
2019-04-07T16:46:25.073Z,4.83
2019-04-07T16:50:29.507Z,4.53
2019-04-07T16:54:33.949Z,5.20
2019-04-07T16:58:39.939Z,5.67
2019-04-07T17:02:43.889Z,5.20
2019-04-07T17:06:58.506Z,5.10
2019-04-07T17:10:53.856Z,6.05
2019-04-07T17:14:57.844Z,5.10
2019-04-07T17:19:02.095Z,5.42
2019-04-07T17:23:06.960Z,5.97
2019-04-07T17:27:11.739Z,4.97
2019-04-07T17:31:15.642Z,5.28
2019-04-07T17:35:21.242Z,6.35
2019-04-07T17:39:26.570Z,4.97
2019-04-07T17:43:45.796Z,5.53
2019-04-07T17:47:41.636Z,4.92
2019-04-07T17:51:53.101Z,4.75
2019-04-07T17:56:19.963Z,6.03
2019-04-07T18:00:43.334Z,5.67
2019-04-07T18:04:53.603Z,5.65
2019-04-07T18:09:10.090Z,6.30
2019-04-07T18:13:15.735Z,5.67
2019-04-07T18:17:23.738Z,6.15
2019-04-07T18:21:51.697Z,6.47
2019-04-07T18:26:14.399Z,4.75
2019-04-07T18:30:20.506Z,6.15
2019-04-07T18:34:42.990Z,4.90
2019-04-07T18:39:06.672Z,5.30
2019-04-07T18:43:21.508Z,5.58
2019-04-07T18:47:27.402Z,7.45
2019-04-07T18:51:33.586Z,6.67
2019-04-07T18:55:50.975Z,7.25
2019-04-07T19:00:05.942Z,7.95
2019-04-07T19:04:17.659Z,6.28
2019-04-07T19:08:40.079Z,7.97
2019-04-07T19:12:47.717Z,8.10
2019-04-07T19:16:55.341Z,8.38
2019-04-07T19:21:01.105Z,8.43
2019-04-07T19:25:21.542Z,8.00
2019-04-07T19:29:39.120Z,8.85
2019-04-07T19:33:45.121Z,8.95
2019-04-07T19:37:53.940Z,8.15
2019-04-07T19:42:16.402Z,8.83
2019-04-07T19:46:40.689Z,7.42
2019-04-07T19:51:01.918Z,7.70
2019-04-07T19:55:14.278Z,8.08
2019-04-07T19:59:41.581Z,8.78
2019-04-07T20:03:44.847Z,8.03
2019-04-07T20:08:01.414Z,7.75
2019-04-07T20:12:14.252Z,7.58
2019-04-07T20:16:26.253Z,7.85
2019-04-07T20:20:34.076Z,7.25
2019-04-07T20:24:55.409Z,6.70
2019-04-07T20:29:10.697Z,8.03
2019-04-07T20:33:18.815Z,8.30
2019-04-07T20:37:27.272Z,7.12
2019-04-07T20:41:43.065Z,8.45
2019-04-07T20:45:53.805Z,8.45
2019-04-07T20:49:59.992Z,7.90
2019-04-07T20:54:11.093Z,7.15
2019-04-07T20:58:23.800Z,7.00
2019-04-07T21:02:29.344Z,7.00
2019-04-07T21:06:38.618Z,8.48
2019-04-07T21:10:49.725Z,7.42
2019-04-07T21:15:21.011Z,7.27
2019-04-07T21:19:20.853Z,6.87
2019-04-07T21:23:41.289Z,8.23
2019-04-07T21:27:50.508Z,7.80
2019-04-07T21:32:09.631Z,6.72
2019-04-07T21:36:30.241Z,8.50
2019-04-07T21:40:51.574Z,7.47
2019-04-07T21:45:10.453Z,7.50
2019-04-07T21:49:27.935Z,7.55
2019-04-07T21:53:33.562Z,6.50
2019-04-07T21:57:38.899Z,7.05
2019-04-07T22:02:00.155Z,6.80
2019-04-07T22:06:14.562Z,6.22
2019-04-07T22:10:20.313Z,6.72
2019-04-07T22:14:23.503Z,6.62
2019-04-07T22:18:27.179Z,5.90
2019-04-07T22:22:31.117Z,6.67
2019-04-07T22:26:34.992Z,6.60
2019-04-07T22:30:42.345Z,5.03
2019-04-07T22:34:44.601Z,6.25
2019-04-07T22:38:48.564Z,6.35
2019-04-07T22:42:52.364Z,5.95
2019-04-07T22:46:56.513Z,4.35
2019-04-07T22:51:02.545Z,6.40
2019-04-07T22:55:08.408Z,5.47
2019-04-07T22:59:12.782Z,4.58
2019-04-07T23:03:17.596Z,5.12
2019-04-07T23:07:21.323Z,4.50
2019-04-07T23:11:25.785Z,5.60
2019-04-07T23:15:38.534Z,5.28
2019-04-07T23:19:34.910Z,4.97
2019-04-07T23:23:38.492Z,5.30
2019-04-07T23:27:42.128Z,4.28
2019-04-07T23:31:46.010Z,5.12
2019-04-07T23:35:49.665Z,4.80
2019-04-07T23:39:53.774Z,5.05
2019-04-07T23:43:57.504Z,4.80
2019-04-07T23:48:01.993Z,4.70
2019-04-07T23:52:05.652Z,5.22
2019-04-07T23:56:10.039Z,5.17
